sensor_id;sensor_type;location;lat;lon;timestamp;P1;durP1;ratioP1;P2;durP2;ratioP2
56830;SDS011;42713;42.676;23.352;2022-10-30T00:02:15;26.35;;;12.10;;
56830;SDS011;42713;42.676;23.352;2022-10-30T00:04:40;22.38;;;12.07;;
56830;SDS011;42713;42.676;23.352;2022-10-30T00:07:06;25.90;;;11.85;;
56830;SDS011;42713;42.676;23.352;2022-10-30T00:09:31;24.08;;;11.02;;
56830;SDS011;42713;42.676;23.352;2022-10-30T00:11:57;21.95;;;10.35;;
56830;SDS011;42713;42.676;23.352;2022-10-30T00:14:22;25.88;;;11.15;;
56830;SDS011;42713;42.676;23.352;2022-10-30T00:16:48;21.63;;;11.38;;
56830;SDS011;42713;42.676;23.352;2022-10-30T00:19:13;24.50;;;11.45;;
56830;SDS011;42713;42.676;23.352;2022-10-30T00:21:40;25.35;;;11.55;;
56830;SDS011;42713;42.676;23.352;2022-10-30T00:24:05;23.52;;;11.70;;
56830;SDS011;42713;42.676;23.352;2022-10-30T00:26:31;25.92;;;12.00;;
56830;SDS011;42713;42.676;23.352;2022-10-30T00:28:57;24.70;;;11.57;;
56830;SDS011;42713;42.676;23.352;2022-10-30T00:31:23;21.60;;;10.57;;
56830;SDS011;42713;42.676;23.352;2022-10-30T00:33:52;18.48;;;10.45;;
56830;SDS011;42713;42.676;23.352;2022-10-30T00:36:19;22.77;;;10.40;;
56830;SDS011;42713;42.676;23.352;2022-10-30T00:38:45;26.00;;;10.38;;
56830;SDS011;42713;42.676;23.352;2022-10-30T00:41:12;18.98;;;10.85;;
56830;SDS011;42713;42.676;23.352;2022-10-30T00:43:43;20.50;;;10.65;;
56830;SDS011;42713;42.676;23.352;2022-10-30T00:46:13;20.75;;;10.70;;
56830;SDS011;42713;42.676;23.352;2022-10-30T00:48:43;20.90;;;9.05;;
56830;SDS011;42713;42.676;23.352;2022-10-30T00:51:12;19.65;;;9.25;;
56830;SDS011;42713;42.676;23.352;2022-10-30T00:53:38;24.30;;;10.68;;
56830;SDS011;42713;42.676;23.352;2022-10-30T00:56:06;23.08;;;10.63;;
56830;SDS011;42713;42.676;23.352;2022-10-30T00:58:37;27.27;;;10.50;;
56830;SDS011;42713;42.676;23.352;2022-10-30T01:01:07;22.90;;;10.50;;
56830;SDS011;42713;42.676;23.352;2022-10-30T01:03:38;29.00;;;12.90;;
56830;SDS011;42713;42.676;23.352;2022-10-30T01:06:05;30.60;;;13.45;;
56830;SDS011;42713;42.676;23.352;2022-10-30T01:08:34;30.45;;;13.45;;
56830;SDS011;42713;42.676;23.352;2022-10-30T01:11:01;27.25;;;12.75;;
56830;SDS011;42713;42.676;23.352;2022-10-30T01:13:27;29.02;;;13.27;;
56830;SDS011;42713;42.676;23.352;2022-10-30T01:29:49;26.48;;;10.32;;
56830;SDS011;42713;42.676;23.352;2022-10-30T01:35:36;22.67;;;11.80;;
56830;SDS011;42713;42.676;23.352;2022-10-30T01:38:16;25.40;;;11.70;;
56830;SDS011;42713;42.676;23.352;2022-10-30T01:41:03;20.00;;;10.93;;
56830;SDS011;42713;42.676;23.352;2022-10-30T01:43:29;24.10;;;11.77;;
56830;SDS011;42713;42.676;23.352;2022-10-30T01:48:48;20.08;;;10.45;;
56830;SDS011;42713;42.676;23.352;2022-10-30T01:51:22;25.75;;;11.73;;
56830;SDS011;42713;42.676;23.352;2022-10-30T01:59:11;22.45;;;13.55;;
56830;SDS011;42713;42.676;23.352;2022-10-30T02:01:41;28.65;;;16.73;;
56830;SDS011;42713;42.676;23.352;2022-10-30T02:04:07;28.38;;;16.35;;
56830;SDS011;42713;42.676;23.352;2022-10-30T02:06:35;33.08;;;16.30;;
56830;SDS011;42713;42.676;23.352;2022-10-30T02:09:02;30.80;;;14.82;;
56830;SDS011;42713;42.676;23.352;2022-10-30T02:11:28;26.17;;;13.88;;
56830;SDS011;42713;42.676;23.352;2022-10-30T02:13:56;29.30;;;13.77;;
56830;SDS011;42713;42.676;23.352;2022-10-30T02:16:24;30.00;;;15.20;;
56830;SDS011;42713;42.676;23.352;2022-10-30T02:18:50;29.67;;;15.75;;
56830;SDS011;42713;42.676;23.352;2022-10-30T02:21:16;27.90;;;13.02;;
56830;SDS011;42713;42.676;23.352;2022-10-30T02:23:41;27.98;;;13.15;;
56830;SDS011;42713;42.676;23.352;2022-10-30T02:26:07;26.08;;;12.13;;
56830;SDS011;42713;42.676;23.352;2022-10-30T02:28:32;19.95;;;10.48;;
56830;SDS011;42713;42.676;23.352;2022-10-30T02:30:58;24.08;;;12.45;;
56830;SDS011;42713;42.676;23.352;2022-10-30T02:33:23;20.08;;;10.75;;
56830;SDS011;42713;42.676;23.352;2022-10-30T02:35:50;23.67;;;12.73;;
56830;SDS011;42713;42.676;23.352;2022-10-30T02:38:15;22.08;;;11.70;;
56830;SDS011;42713;42.676;23.352;2022-10-30T02:40:41;21.55;;;12.60;;
56830;SDS011;42713;42.676;23.352;2022-10-30T02:43:06;28.02;;;11.90;;
56830;SDS011;42713;42.676;23.352;2022-10-30T02:45:32;26.25;;;12.38;;
56830;SDS011;42713;42.676;23.352;2022-10-30T02:47:58;23.00;;;12.07;;
56830;SDS011;42713;42.676;23.352;2022-10-30T02:50:24;20.38;;;11.77;;
56830;SDS011;42713;42.676;23.352;2022-10-30T02:52:50;21.52;;;11.43;;
56830;SDS011;42713;42.676;23.352;2022-10-30T02:55:16;20.20;;;10.60;;
56830;SDS011;42713;42.676;23.352;2022-10-30T02:57:42;21.75;;;11.73;;
56830;SDS011;42713;42.676;23.352;2022-10-30T03:00:07;21.70;;;10.90;;
56830;SDS011;42713;42.676;23.352;2022-10-30T03:02:33;23.83;;;11.23;;
56830;SDS011;42713;42.676;23.352;2022-10-30T03:04:59;20.42;;;10.82;;
56830;SDS011;42713;42.676;23.352;2022-10-30T03:07:24;20.15;;;10.18;;
56830;SDS011;42713;42.676;23.352;2022-10-30T03:09:51;18.95;;;9.75;;
56830;SDS011;42713;42.676;23.352;2022-10-30T03:12:18;22.30;;;10.48;;
56830;SDS011;42713;42.676;23.352;2022-10-30T03:14:44;21.27;;;10.02;;
56830;SDS011;42713;42.676;23.352;2022-10-30T03:17:09;18.75;;;10.48;;
56830;SDS011;42713;42.676;23.352;2022-10-30T03:19:35;21.88;;;11.02;;
56830;SDS011;42713;42.676;23.352;2022-10-30T03:22:01;20.08;;;10.57;;
56830;SDS011;42713;42.676;23.352;2022-10-30T03:24:27;20.65;;;10.80;;
56830;SDS011;42713;42.676;23.352;2022-10-30T03:26:53;21.55;;;10.73;;
56830;SDS011;42713;42.676;23.352;2022-10-30T03:29:18;21.83;;;11.38;;
56830;SDS011;42713;42.676;23.352;2022-10-30T03:31:44;19.77;;;10.05;;
56830;SDS011;42713;42.676;23.352;2022-10-30T03:34:09;21.48;;;10.05;;
56830;SDS011;42713;42.676;23.352;2022-10-30T03:54:21;18.75;;;9.50;;
56830;SDS011;42713;42.676;23.352;2022-10-30T03:56:46;16.67;;;9.93;;
56830;SDS011;42713;42.676;23.352;2022-10-30T03:59:12;21.75;;;10.40;;
56830;SDS011;42713;42.676;23.352;2022-10-30T04:01:37;19.35;;;11.35;;
56830;SDS011;42713;42.676;23.352;2022-10-30T04:04:03;20.90;;;11.18;;
56830;SDS011;42713;42.676;23.352;2022-10-30T04:06:28;17.85;;;9.98;;
56830;SDS011;42713;42.676;23.352;2022-10-30T04:08:54;25.00;;;11.85;;
56830;SDS011;42713;42.676;23.352;2022-10-30T04:11:19;19.55;;;10.52;;
56830;SDS011;42713;42.676;23.352;2022-10-30T04:13:45;20.52;;;9.88;;
56830;SDS011;42713;42.676;23.352;2022-10-30T04:16:10;17.30;;;9.90;;
56830;SDS011;42713;42.676;23.352;2022-10-30T04:18:36;17.35;;;10.70;;
56830;SDS011;42713;42.676;23.352;2022-10-30T04:21:01;17.67;;;11.13;;
56830;SDS011;42713;42.676;23.352;2022-10-30T04:23:27;24.20;;;12.73;;
56830;SDS011;42713;42.676;23.352;2022-10-30T04:25:52;22.80;;;11.05;;
56830;SDS011;42713;42.676;23.352;2022-10-30T04:28:17;21.95;;;11.45;;
56830;SDS011;42713;42.676;23.352;2022-10-30T04:30:45;20.27;;;10.82;;
56830;SDS011;42713;42.676;23.352;2022-10-30T04:33:12;25.73;;;13.02;;
56830;SDS011;42713;42.676;23.352;2022-10-30T04:35:38;25.55;;;13.95;;
56830;SDS011;42713;42.676;23.352;2022-10-30T04:38:06;24.90;;;13.88;;
56830;SDS011;42713;42.676;23.352;2022-10-30T04:40:35;24.85;;;13.68;;
56830;SDS011;42713;42.676;23.352;2022-10-30T04:43:02;22.30;;;12.80;;
56830;SDS011;42713;42.676;23.352;2022-10-30T04:45:27;23.30;;;12.90;;
56830;SDS011;42713;42.676;23.352;2022-10-30T04:47:58;24.98;;;14.15;;
56830;SDS011;42713;42.676;23.352;2022-10-30T04:50:25;23.67;;;14.10;;
56830;SDS011;42713;42.676;23.352;2022-10-30T04:52:57;25.60;;;14.77;;
56830;SDS011;42713;42.676;23.352;2022-10-30T04:55:23;25.25;;;14.20;;
56830;SDS011;42713;42.676;23.352;2022-10-30T04:57:49;29.00;;;14.95;;
56830;SDS011;42713;42.676;23.352;2022-10-30T05:00:14;32.63;;;15.90;;
56830;SDS011;42713;42.676;23.352;2022-10-30T05:02:40;29.27;;;15.95;;
56830;SDS011;42713;42.676;23.352;2022-10-30T05:05:05;25.23;;;14.48;;
56830;SDS011;42713;42.676;23.352;2022-10-30T05:07:31;29.58;;;14.50;;
56830;SDS011;42713;42.676;23.352;2022-10-30T05:09:56;24.95;;;13.80;;
56830;SDS011;42713;42.676;23.352;2022-10-30T05:12:22;25.05;;;13.82;;
56830;SDS011;42713;42.676;23.352;2022-10-30T05:14:47;25.85;;;13.88;;
56830;SDS011;42713;42.676;23.352;2022-10-30T05:17:13;25.45;;;13.57;;
56830;SDS011;42713;42.676;23.352;2022-10-30T05:19:38;21.90;;;12.80;;
56830;SDS011;42713;42.676;23.352;2022-10-30T05:22:03;29.02;;;13.88;;
56830;SDS011;42713;42.676;23.352;2022-10-30T05:24:29;27.63;;;14.63;;
56830;SDS011;42713;42.676;23.352;2022-10-30T05:26:54;31.35;;;16.58;;
56830;SDS011;42713;42.676;23.352;2022-10-30T05:29:20;25.70;;;15.45;;
56830;SDS011;42713;42.676;23.352;2022-10-30T05:31:45;28.55;;;15.93;;
56830;SDS011;42713;42.676;23.352;2022-10-30T05:34:11;28.67;;;17.42;;
56830;SDS011;42713;42.676;23.352;2022-10-30T05:36:36;31.02;;;18.00;;
56830;SDS011;42713;42.676;23.352;2022-10-30T05:39:01;29.48;;;18.20;;
56830;SDS011;42713;42.676;23.352;2022-10-30T05:41:27;35.70;;;16.08;;
56830;SDS011;42713;42.676;23.352;2022-10-30T05:43:53;40.88;;;19.58;;
56830;SDS011;42713;42.676;23.352;2022-10-30T05:46:18;31.70;;;17.98;;
56830;SDS011;42713;42.676;23.352;2022-10-30T05:48:44;32.97;;;17.92;;
56830;SDS011;42713;42.676;23.352;2022-10-30T05:51:09;30.73;;;20.85;;
56830;SDS011;42713;42.676;23.352;2022-10-30T05:53:35;47.10;;;25.05;;
56830;SDS011;42713;42.676;23.352;2022-10-30T05:56:00;38.53;;;22.50;;
56830;SDS011;42713;42.676;23.352;2022-10-30T05:58:25;37.97;;;24.65;;
56830;SDS011;42713;42.676;23.352;2022-10-30T06:00:51;38.42;;;24.90;;
56830;SDS011;42713;42.676;23.352;2022-10-30T06:03:16;43.30;;;27.08;;
56830;SDS011;42713;42.676;23.352;2022-10-30T06:05:45;38.00;;;23.55;;
56830;SDS011;42713;42.676;23.352;2022-10-30T06:08:11;36.88;;;22.17;;
56830;SDS011;42713;42.676;23.352;2022-10-30T06:10:37;38.58;;;22.65;;
56830;SDS011;42713;42.676;23.352;2022-10-30T06:13:03;42.17;;;20.00;;
56830;SDS011;42713;42.676;23.352;2022-10-30T06:15:30;35.53;;;19.95;;
56830;SDS011;42713;42.676;23.352;2022-10-30T06:17:56;32.53;;;20.58;;
56830;SDS011;42713;42.676;23.352;2022-10-30T06:20:23;33.03;;;20.50;;
56830;SDS011;42713;42.676;23.352;2022-10-30T06:25:22;37.15;;;22.17;;
56830;SDS011;42713;42.676;23.352;2022-10-30T06:27:48;38.00;;;21.50;;
56830;SDS011;42713;42.676;23.352;2022-10-30T06:30:13;37.25;;;22.17;;
56830;SDS011;42713;42.676;23.352;2022-10-30T06:32:39;33.90;;;21.48;;
56830;SDS011;42713;42.676;23.352;2022-10-30T06:35:07;44.53;;;23.48;;
56830;SDS011;42713;42.676;23.352;2022-10-30T06:37:33;40.78;;;23.77;;
56830;SDS011;42713;42.676;23.352;2022-10-30T06:39:59;47.53;;;24.17;;
56830;SDS011;42713;42.676;23.352;2022-10-30T06:42:24;39.53;;;22.48;;
56830;SDS011;42713;42.676;23.352;2022-10-30T06:44:50;41.70;;;22.73;;
56830;SDS011;42713;42.676;23.352;2022-10-30T06:47:15;45.78;;;24.15;;
56830;SDS011;42713;42.676;23.352;2022-10-30T06:49:41;37.15;;;23.92;;
56830;SDS011;42713;42.676;23.352;2022-10-30T06:52:07;36.72;;;21.40;;
56830;SDS011;42713;42.676;23.352;2022-10-30T06:54:32;33.70;;;19.92;;
56830;SDS011;42713;42.676;23.352;2022-10-30T06:56:58;35.10;;;19.90;;
56830;SDS011;42713;42.676;23.352;2022-10-30T06:59:23;35.25;;;20.05;;
56830;SDS011;42713;42.676;23.352;2022-10-30T07:01:49;36.38;;;20.33;;
56830;SDS011;42713;42.676;23.352;2022-10-30T07:04:14;33.97;;;19.38;;
56830;SDS011;42713;42.676;23.352;2022-10-30T07:06:40;31.17;;;18.50;;
56830;SDS011;42713;42.676;23.352;2022-10-30T07:09:05;34.95;;;18.42;;
56830;SDS011;42713;42.676;23.352;2022-10-30T07:11:31;31.95;;;17.02;;
56830;SDS011;42713;42.676;23.352;2022-10-30T07:13:56;30.55;;;18.42;;
56830;SDS011;42713;42.676;23.352;2022-10-30T07:16:22;37.40;;;18.73;;
56830;SDS011;42713;42.676;23.352;2022-10-30T07:18:47;28.15;;;17.73;;
56830;SDS011;42713;42.676;23.352;2022-10-30T07:21:13;29.95;;;18.15;;
56830;SDS011;42713;42.676;23.352;2022-10-30T07:23:38;24.90;;;15.98;;
56830;SDS011;42713;42.676;23.352;2022-10-30T07:26:04;32.88;;;17.38;;
56830;SDS011;42713;42.676;23.352;2022-10-30T07:28:29;30.17;;;17.73;;
56830;SDS011;42713;42.676;23.352;2022-10-30T07:30:57;31.40;;;17.45;;
56830;SDS011;42713;42.676;23.352;2022-10-30T07:33:23;29.70;;;16.88;;
56830;SDS011;42713;42.676;23.352;2022-10-30T07:35:48;29.90;;;16.10;;
56830;SDS011;42713;42.676;23.352;2022-10-30T07:38:14;29.92;;;17.10;;
56830;SDS011;42713;42.676;23.352;2022-10-30T07:40:41;28.80;;;16.77;;
56830;SDS011;42713;42.676;23.352;2022-10-30T07:43:07;30.90;;;16.15;;
56830;SDS011;42713;42.676;23.352;2022-10-30T07:45:34;27.13;;;15.60;;
56830;SDS011;42713;42.676;23.352;2022-10-30T07:47:59;34.88;;;19.15;;
56830;SDS011;42713;42.676;23.352;2022-10-30T07:50:25;25.83;;;15.77;;
56830;SDS011;42713;42.676;23.352;2022-10-30T07:52:51;30.70;;;16.80;;
56830;SDS011;42713;42.676;23.352;2022-10-30T07:55:17;33.55;;;16.30;;
56830;SDS011;42713;42.676;23.352;2022-10-30T07:57:43;28.23;;;16.35;;
56830;SDS011;42713;42.676;23.352;2022-10-30T08:00:09;30.65;;;16.77;;
56830;SDS011;42713;42.676;23.352;2022-10-30T08:02:37;26.35;;;16.15;;
56830;SDS011;42713;42.676;23.352;2022-10-30T08:05:03;29.85;;;15.60;;
56830;SDS011;42713;42.676;23.352;2022-10-30T08:07:29;24.00;;;15.75;;
56830;SDS011;42713;42.676;23.352;2022-10-30T08:09:55;27.77;;;15.20;;
56830;SDS011;42713;42.676;23.352;2022-10-30T08:12:21;27.27;;;15.63;;
56830;SDS011;42713;42.676;23.352;2022-10-30T08:14:48;28.98;;;16.13;;
56830;SDS011;42713;42.676;23.352;2022-10-30T08:17:14;27.15;;;15.90;;
56830;SDS011;42713;42.676;23.352;2022-10-30T08:19:40;26.48;;;15.15;;
56830;SDS011;42713;42.676;23.352;2022-10-30T08:22:05;28.35;;;15.77;;
56830;SDS011;42713;42.676;23.352;2022-10-30T08:24:31;23.83;;;14.02;;
56830;SDS011;42713;42.676;23.352;2022-10-30T08:26:57;21.02;;;14.15;;
56830;SDS011;42713;42.676;23.352;2022-10-30T08:29:23;25.90;;;13.80;;
56830;SDS011;42713;42.676;23.352;2022-10-30T08:31:48;20.33;;;13.13;;
56830;SDS011;42713;42.676;23.352;2022-10-30T08:34:14;25.77;;;14.75;;
56830;SDS011;42713;42.676;23.352;2022-10-30T08:36:40;32.25;;;14.90;;
56830;SDS011;42713;42.676;23.352;2022-10-30T08:39:07;26.40;;;14.70;;
56830;SDS011;42713;42.676;23.352;2022-10-30T08:41:33;28.80;;;15.02;;
56830;SDS011;42713;42.676;23.352;2022-10-30T08:43:59;27.63;;;14.68;;
56830;SDS011;42713;42.676;23.352;2022-10-30T08:46:24;26.88;;;13.65;;
56830;SDS011;42713;42.676;23.352;2022-10-30T08:48:50;24.40;;;15.55;;
56830;SDS011;42713;42.676;23.352;2022-10-30T08:51:15;25.83;;;14.65;;
56830;SDS011;42713;42.676;23.352;2022-10-30T08:53:41;24.95;;;14.63;;
56830;SDS011;42713;42.676;23.352;2022-10-30T08:56:07;23.10;;;14.27;;
56830;SDS011;42713;42.676;23.352;2022-10-30T08:58:32;28.10;;;14.10;;
56830;SDS011;42713;42.676;23.352;2022-10-30T09:00:58;24.13;;;13.18;;
56830;SDS011;42713;42.676;23.352;2022-10-30T09:03:26;23.92;;;13.38;;
56830;SDS011;42713;42.676;23.352;2022-10-30T09:05:52;21.65;;;13.13;;
56830;SDS011;42713;42.676;23.352;2022-10-30T09:08:17;21.63;;;12.20;;
56830;SDS011;42713;42.676;23.352;2022-10-30T09:10:52;28.27;;;13.15;;
56830;SDS011;42713;42.676;23.352;2022-10-30T09:13:19;23.37;;;13.00;;
56830;SDS011;42713;42.676;23.352;2022-10-30T09:15:44;28.25;;;13.25;;
56830;SDS011;42713;42.676;23.352;2022-10-30T09:18:09;24.02;;;12.93;;
56830;SDS011;42713;42.676;23.352;2022-10-30T09:20:35;29.02;;;17.17;;
56830;SDS011;42713;42.676;23.352;2022-10-30T09:23:00;23.65;;;14.13;;
56830;SDS011;42713;42.676;23.352;2022-10-30T09:25:26;22.42;;;13.95;;
56830;SDS011;42713;42.676;23.352;2022-10-30T09:27:51;20.80;;;12.00;;
56830;SDS011;42713;42.676;23.352;2022-10-30T09:30:17;19.55;;;12.30;;
56830;SDS011;42713;42.676;23.352;2022-10-30T09:32:42;24.60;;;12.60;;
56830;SDS011;42713;42.676;23.352;2022-10-30T09:35:08;26.35;;;12.40;;
56830;SDS011;42713;42.676;23.352;2022-10-30T09:37:36;18.58;;;11.52;;
56830;SDS011;42713;42.676;23.352;2022-10-30T09:40:03;19.42;;;12.23;;
56830;SDS011;42713;42.676;23.352;2022-10-30T09:47:36;19.05;;;12.10;;
56830;SDS011;42713;42.676;23.352;2022-10-30T09:50:26;20.75;;;12.25;;
56830;SDS011;42713;42.676;23.352;2022-10-30T09:58:22;22.30;;;11.63;;
56830;SDS011;42713;42.676;23.352;2022-10-30T10:06:16;21.63;;;11.20;;
56830;SDS011;42713;42.676;23.352;2022-10-30T10:08:45;19.58;;;11.02;;
56830;SDS011;42713;42.676;23.352;2022-10-30T10:11:16;21.65;;;10.85;;
56830;SDS011;42713;42.676;23.352;2022-10-30T10:16:32;24.00;;;9.80;;
56830;SDS011;42713;42.676;23.352;2022-10-30T10:21:57;19.80;;;9.35;;
56830;SDS011;42713;42.676;23.352;2022-10-30T10:24:34;16.85;;;9.57;;
56830;SDS011;42713;42.676;23.352;2022-10-30T10:29:41;21.10;;;9.55;;
56830;SDS011;42713;42.676;23.352;2022-10-30T10:37:16;17.92;;;8.15;;
56830;SDS011;42713;42.676;23.352;2022-10-30T10:51:01;14.68;;;6.68;;
56830;SDS011;42713;42.676;23.352;2022-10-30T10:53:37;12.25;;;5.88;;
56830;SDS011;42713;42.676;23.352;2022-10-30T10:56:08;12.43;;;5.50;;
56830;SDS011;42713;42.676;23.352;2022-10-30T10:58:37;14.88;;;5.18;;
56830;SDS011;42713;42.676;23.352;2022-10-30T11:01:19;16.65;;;5.22;;
56830;SDS011;42713;42.676;23.352;2022-10-30T11:03:57;13.63;;;4.40;;
56830;SDS011;42713;42.676;23.352;2022-10-30T11:06:29;14.95;;;4.22;;
56830;SDS011;42713;42.676;23.352;2022-10-30T11:09:20;10.75;;;4.78;;
56830;SDS011;42713;42.676;23.352;2022-10-30T11:11:46;16.70;;;4.97;;
56830;SDS011;42713;42.676;23.352;2022-10-30T11:14:16;10.80;;;4.10;;
56830;SDS011;42713;42.676;23.352;2022-10-30T11:16:51;11.27;;;4.43;;
56830;SDS011;42713;42.676;23.352;2022-10-30T11:19:18;8.82;;;3.85;;
56830;SDS011;42713;42.676;23.352;2022-10-30T11:21:46;10.18;;;3.97;;
56830;SDS011;42713;42.676;23.352;2022-10-30T11:24:25;7.80;;;3.38;;
56830;SDS011;42713;42.676;23.352;2022-10-30T11:26:54;13.43;;;4.03;;
56830;SDS011;42713;42.676;23.352;2022-10-30T11:29:22;13.75;;;3.80;;
56830;SDS011;42713;42.676;23.352;2022-10-30T11:32:00;11.75;;;3.72;;
56830;SDS011;42713;42.676;23.352;2022-10-30T11:34:34;14.18;;;4.00;;
56830;SDS011;42713;42.676;23.352;2022-10-30T11:37:01;8.40;;;3.78;;
56830;SDS011;42713;42.676;23.352;2022-10-30T11:39:30;12.57;;;4.53;;
56830;SDS011;42713;42.676;23.352;2022-10-30T11:42:00;10.83;;;4.10;;
56830;SDS011;42713;42.676;23.352;2022-10-30T11:44:28;12.93;;;4.22;;
56830;SDS011;42713;42.676;23.352;2022-10-30T11:47:06;14.43;;;4.83;;
56830;SDS011;42713;42.676;23.352;2022-10-30T11:51:59;11.60;;;3.45;;
56830;SDS011;42713;42.676;23.352;2022-10-30T11:54:25;8.40;;;3.17;;
56830;SDS011;42713;42.676;23.352;2022-10-30T11:56:52;11.18;;;4.03;;
56830;SDS011;42713;42.676;23.352;2022-10-30T11:59:20;9.30;;;3.00;;
56830;SDS011;42713;42.676;23.352;2022-10-30T12:02:01;10.20;;;3.58;;
56830;SDS011;42713;42.676;23.352;2022-10-30T12:04:43;7.75;;;3.13;;
56830;SDS011;42713;42.676;23.352;2022-10-30T12:09:53;13.55;;;5.75;;
56830;SDS011;42713;42.676;23.352;2022-10-30T12:12:28;10.07;;;4.10;;
56830;SDS011;42713;42.676;23.352;2022-10-30T12:15:40;11.90;;;3.40;;
56830;SDS011;42713;42.676;23.352;2022-10-30T12:17:51;13.90;;;3.30;;
56830;SDS011;42713;42.676;23.352;2022-10-30T12:20:17;11.88;;;3.22;;
56830;SDS011;42713;42.676;23.352;2022-10-30T12:22:42;12.05;;;3.40;;
56830;SDS011;42713;42.676;23.352;2022-10-30T12:25:20;8.73;;;2.78;;
56830;SDS011;42713;42.676;23.352;2022-10-30T12:27:57;11.82;;;3.05;;
56830;SDS011;42713;42.676;23.352;2022-10-30T12:30:35;9.80;;;2.70;;
56830;SDS011;42713;42.676;23.352;2022-10-30T12:33:19;11.00;;;3.20;;
56830;SDS011;42713;42.676;23.352;2022-10-30T12:43:23;7.85;;;2.65;;
56830;SDS011;42713;42.676;23.352;2022-10-30T12:45:51;7.43;;;2.42;;
56830;SDS011;42713;42.676;23.352;2022-10-30T12:48:38;7.80;;;2.38;;
56830;SDS011;42713;42.676;23.352;2022-10-30T12:51:26;11.23;;;2.78;;
56830;SDS011;42713;42.676;23.352;2022-10-30T12:54:23;9.13;;;2.67;;
56830;SDS011;42713;42.676;23.352;2022-10-30T12:57:22;8.88;;;2.58;;
56830;SDS011;42713;42.676;23.352;2022-10-30T12:59:56;9.25;;;2.50;;
56830;SDS011;42713;42.676;23.352;2022-10-30T13:02:39;8.38;;;2.55;;
56830;SDS011;42713;42.676;23.352;2022-10-30T13:08:11;9.85;;;2.40;;
56830;SDS011;42713;42.676;23.352;2022-10-30T13:10:40;9.52;;;2.92;;
56830;SDS011;42713;42.676;23.352;2022-10-30T13:13:12;8.68;;;2.80;;
56830;SDS011;42713;42.676;23.352;2022-10-30T13:15:43;16.55;;;2.60;;
56830;SDS011;42713;42.676;23.352;2022-10-30T13:18:15;6.82;;;1.75;;
56830;SDS011;42713;42.676;23.352;2022-10-30T13:20:44;8.73;;;2.10;;
56830;SDS011;42713;42.676;23.352;2022-10-30T13:23:22;9.13;;;1.60;;
56830;SDS011;42713;42.676;23.352;2022-10-30T13:28:46;8.73;;;2.10;;
56830;SDS011;42713;42.676;23.352;2022-10-30T13:37:04;8.27;;;1.90;;
56830;SDS011;42713;42.676;23.352;2022-10-30T13:39:39;8.15;;;1.88;;
56830;SDS011;42713;42.676;23.352;2022-10-30T13:42:18;8.90;;;1.98;;
56830;SDS011;42713;42.676;23.352;2022-10-30T13:45:03;7.75;;;1.70;;
56830;SDS011;42713;42.676;23.352;2022-10-30T13:48:02;9.80;;;1.95;;
56830;SDS011;42713;42.676;23.352;2022-10-30T13:53:19;7.55;;;2.03;;
56830;SDS011;42713;42.676;23.352;2022-10-30T13:55:51;16.85;;;2.03;;
56830;SDS011;42713;42.676;23.352;2022-10-30T14:12:00;10.27;;;2.33;;
56830;SDS011;42713;42.676;23.352;2022-10-30T14:14:46;13.98;;;2.30;;
56830;SDS011;42713;42.676;23.352;2022-10-30T14:17:15;10.57;;;1.85;;
56830;SDS011;42713;42.676;23.352;2022-10-30T14:22:29;14.57;;;2.20;;
56830;SDS011;42713;42.676;23.352;2022-10-30T14:24:55;9.60;;;2.08;;
56830;SDS011;42713;42.676;23.352;2022-10-30T14:27:29;9.18;;;2.30;;
56830;SDS011;42713;42.676;23.352;2022-10-30T14:30:16;6.75;;;2.30;;
56830;SDS011;42713;42.676;23.352;2022-10-30T14:32:47;12.18;;;2.58;;
56830;SDS011;42713;42.676;23.352;2022-10-30T14:37:55;10.82;;;2.85;;
56830;SDS011;42713;42.676;23.352;2022-10-30T14:40:35;13.40;;;2.80;;
56830;SDS011;42713;42.676;23.352;2022-10-30T14:45:56;12.05;;;3.10;;
56830;SDS011;42713;42.676;23.352;2022-10-30T14:56:45;10.32;;;2.60;;
56830;SDS011;42713;42.676;23.352;2022-10-30T15:01:54;10.88;;;2.95;;
56830;SDS011;42713;42.676;23.352;2022-10-30T15:04:42;8.35;;;2.75;;
56830;SDS011;42713;42.676;23.352;2022-10-30T15:15:21;6.95;;;2.72;;
56830;SDS011;42713;42.676;23.352;2022-10-30T15:17:54;12.30;;;3.05;;
56830;SDS011;42713;42.676;23.352;2022-10-30T15:20:24;12.60;;;3.08;;
56830;SDS011;42713;42.676;23.352;2022-10-30T15:22:53;9.85;;;2.72;;
56830;SDS011;42713;42.676;23.352;2022-10-30T15:25:22;9.25;;;2.70;;
56830;SDS011;42713;42.676;23.352;2022-10-30T15:27:51;12.18;;;2.72;;
56830;SDS011;42713;42.676;23.352;2022-10-30T15:30:23;14.45;;;3.05;;
56830;SDS011;42713;42.676;23.352;2022-10-30T15:32:51;9.07;;;2.92;;
56830;SDS011;42713;42.676;23.352;2022-10-30T15:35:19;11.70;;;3.00;;
56830;SDS011;42713;42.676;23.352;2022-10-30T15:42:53;10.57;;;2.95;;
56830;SDS011;42713;42.676;23.352;2022-10-30T15:45:24;9.93;;;2.80;;
56830;SDS011;42713;42.676;23.352;2022-10-30T15:50:43;11.93;;;3.30;;
56830;SDS011;42713;42.676;23.352;2022-10-30T15:53:19;11.90;;;3.78;;
56830;SDS011;42713;42.676;23.352;2022-10-30T15:55:48;9.43;;;3.45;;
56830;SDS011;42713;42.676;23.352;2022-10-30T15:58:16;10.25;;;3.35;;
56830;SDS011;42713;42.676;23.352;2022-10-30T16:00:59;10.18;;;3.40;;
56830;SDS011;42713;42.676;23.352;2022-10-30T16:03:26;12.65;;;3.00;;
56830;SDS011;42713;42.676;23.352;2022-10-30T16:06:02;11.43;;;3.38;;
56830;SDS011;42713;42.676;23.352;2022-10-30T16:08:42;12.60;;;3.60;;
56830;SDS011;42713;42.676;23.352;2022-10-30T16:11:09;9.52;;;3.58;;
56830;SDS011;42713;42.676;23.352;2022-10-30T16:13:34;12.10;;;3.50;;
56830;SDS011;42713;42.676;23.352;2022-10-30T16:16:01;10.05;;;3.63;;
56830;SDS011;42713;42.676;23.352;2022-10-30T16:18:29;11.30;;;3.88;;
56830;SDS011;42713;42.676;23.352;2022-10-30T16:20:59;10.68;;;3.38;;
56830;SDS011;42713;42.676;23.352;2022-10-30T16:23:28;13.68;;;3.60;;
56830;SDS011;42713;42.676;23.352;2022-10-30T16:25:55;11.18;;;3.90;;
56830;SDS011;42713;42.676;23.352;2022-10-30T16:28:35;13.45;;;3.63;;
56830;SDS011;42713;42.676;23.352;2022-10-30T16:31:04;11.50;;;3.88;;
56830;SDS011;42713;42.676;23.352;2022-10-30T16:33:32;11.85;;;3.75;;
56830;SDS011;42713;42.676;23.352;2022-10-30T16:36:03;14.23;;;3.30;;
56830;SDS011;42713;42.676;23.352;2022-10-30T16:38:35;9.88;;;3.60;;
56830;SDS011;42713;42.676;23.352;2022-10-30T16:41:03;10.35;;;3.78;;
56830;SDS011;42713;42.676;23.352;2022-10-30T16:43:30;45.30;;;4.78;;
56830;SDS011;42713;42.676;23.352;2022-10-30T16:51:11;14.43;;;4.25;;
56830;SDS011;42713;42.676;23.352;2022-10-30T17:14:00;10.68;;;3.67;;
56830;SDS011;42713;42.676;23.352;2022-10-30T17:16:31;12.18;;;4.60;;
56830;SDS011;42713;42.676;23.352;2022-10-30T17:22:06;14.13;;;4.13;;
56830;SDS011;42713;42.676;23.352;2022-10-30T17:24:45;13.65;;;4.03;;
56830;SDS011;42713;42.676;23.352;2022-10-30T17:27:30;13.10;;;3.85;;
56830;SDS011;42713;42.676;23.352;2022-10-30T17:30:26;13.18;;;3.65;;
56830;SDS011;42713;42.676;23.352;2022-10-30T17:36:04;8.73;;;3.70;;
56830;SDS011;42713;42.676;23.352;2022-10-30T17:39:01;10.35;;;4.05;;
56830;SDS011;42713;42.676;23.352;2022-10-30T17:42:25;11.07;;;3.80;;